createdAt,value
2018-10-16T00:01:00.815Z,82.92
2018-10-16T00:03:31.216Z,82.48
2018-10-16T00:06:01.642Z,82.94
2018-10-16T00:08:32.021Z,82.82
2018-10-16T00:11:02.717Z,83.19
2018-10-16T00:13:33.116Z,83.10
2018-10-16T00:16:03.465Z,83.27
2018-10-16T00:18:35.181Z,83.70
2018-10-16T00:21:05.669Z,83.50
2018-10-16T00:23:35.942Z,83.66
2018-10-16T00:26:07.215Z,83.70
2018-10-16T00:28:39.849Z,83.78
2018-10-16T00:31:10.810Z,84.08
2018-10-16T00:33:41.148Z,84.58
2018-10-16T00:36:11.460Z,84.57
2018-10-16T00:38:42.046Z,84.61
2018-10-16T00:41:12.304Z,84.93
2018-10-16T00:43:42.634Z,84.70
2018-10-16T00:46:12.954Z,84.80
2018-10-16T00:48:43.755Z,84.80
2018-10-16T00:51:14.088Z,84.67
2018-10-16T00:53:44.356Z,84.48
2018-10-16T00:56:14.690Z,84.53
2018-10-16T00:58:45.041Z,84.77
2018-10-16T01:01:17.845Z,84.81
2018-10-16T01:03:48.148Z,84.57
2018-10-16T01:06:18.491Z,84.66
2018-10-16T01:08:48.819Z,85.01
2018-10-16T01:11:19.589Z,84.37
2018-10-16T01:13:49.922Z,84.57
2018-10-16T01:16:20.389Z,84.72
2018-10-16T01:18:50.744Z,84.89
2018-10-16T01:21:22.010Z,85.84
2018-10-16T01:23:52.956Z,85.67
2018-10-16T01:26:23.747Z,85.73
2018-10-16T01:28:55.483Z,85.16
2018-10-16T01:31:25.820Z,85.77
2018-10-16T01:33:56.269Z,85.23
2018-10-16T01:36:26.582Z,85.41
2018-10-16T01:39:05.425Z,85.85
2018-10-16T01:41:35.822Z,85.86
2018-10-16T01:44:06.144Z,86.45
2018-10-16T01:46:36.416Z,86.27
2018-10-16T01:49:06.958Z,86.47
2018-10-16T01:51:37.278Z,86.63
2018-10-16T01:54:09.805Z,87.10
2018-10-16T01:56:40.210Z,86.68
2018-10-16T01:59:10.440Z,86.87
2018-10-16T02:01:40.788Z,86.60
2018-10-16T02:04:11.392Z,86.36
2018-10-16T02:06:41.841Z,86.29
2018-10-16T02:09:13.332Z,86.42
2018-10-16T02:11:43.668Z,86.40
2018-10-16T02:14:13.917Z,86.36
2018-10-16T02:16:44.396Z,87.09
2018-10-16T02:19:15.107Z,87.01
2018-10-16T02:21:45.462Z,86.98
2018-10-16T02:24:15.893Z,86.74
2018-10-16T02:26:46.187Z,87.11
2018-10-16T02:29:17.531Z,86.66
2018-10-16T02:31:47.811Z,86.62
2018-10-16T02:34:18.227Z,87.01
2018-10-16T02:36:48.525Z,87.14
2018-10-16T02:39:18.800Z,86.91
2018-10-16T02:41:49.147Z,87.18
2018-10-16T02:44:19.924Z,87.00
2018-10-16T02:46:50.314Z,87.21
2018-10-16T02:49:20.612Z,86.99
2018-10-16T02:51:50.958Z,86.42
2018-10-16T02:54:21.689Z,86.65
2018-10-16T02:56:52.068Z,86.68
2018-10-16T02:59:22.376Z,87.00
2018-10-16T03:01:52.674Z,86.93
2018-10-16T03:04:23.004Z,87.10
2018-10-16T03:06:53.359Z,87.03
2018-10-16T03:09:24.975Z,87.12
2018-10-16T03:11:55.282Z,86.92
2018-10-16T03:14:25.585Z,87.46
2018-10-16T03:16:55.896Z,87.73
2018-10-16T03:19:26.586Z,87.07
2018-10-16T03:21:56.747Z,87.55
2018-10-16T03:24:26.933Z,87.53
2018-10-16T03:26:57.060Z,87.24
2018-10-16T03:29:27.191Z,87.37
2018-10-16T03:31:57.336Z,87.18
2018-10-16T03:34:27.775Z,87.48
2018-10-16T03:36:58.007Z,87.65
2018-10-16T03:39:28.151Z,86.82
2018-10-16T03:41:58.295Z,87.29
2018-10-16T03:44:28.743Z,87.41
2018-10-16T03:46:58.960Z,87.00
2018-10-16T03:49:29.557Z,87.33
2018-10-16T03:51:59.719Z,87.37
2018-10-16T03:54:30.533Z,87.61
2018-10-16T03:57:05.636Z,87.60
2018-10-16T04:02:12.921Z,87.67
2018-10-16T04:04:43.449Z,87.96
2018-10-16T04:07:13.632Z,87.85
2018-10-16T04:09:43.788Z,87.40
2018-10-16T04:12:14.126Z,87.80
2018-10-16T04:14:45.297Z,87.40
2018-10-16T04:17:15.440Z,87.87
2018-10-16T04:19:45.684Z,87.15
2018-10-16T04:22:17.240Z,88.33
2018-10-16T04:24:47.367Z,87.25
2018-10-16T04:27:17.429Z,87.08
2018-10-16T04:29:47.607Z,87.19
2018-10-16T04:32:18.303Z,86.72
2018-10-16T04:34:48.715Z,86.69
2018-10-16T04:37:18.885Z,86.72
2018-10-16T04:39:49.256Z,86.82
2018-10-16T04:42:19.378Z,87.19
2018-10-16T04:44:49.538Z,86.78
2018-10-16T04:47:20.084Z,87.01
2018-10-16T04:49:50.267Z,86.74
2018-10-16T04:52:20.397Z,86.87
2018-10-16T04:54:50.881Z,86.61
2018-10-16T04:57:21.341Z,86.25
2018-10-16T04:59:51.608Z,86.53
2018-10-16T05:02:22.237Z,86.23
2018-10-16T05:04:52.674Z,86.34
2018-10-16T05:07:22.925Z,86.09
2018-10-16T05:09:53.366Z,85.86
2018-10-16T05:12:23.543Z,85.50
2018-10-16T05:14:53.800Z,85.49
2018-10-16T05:17:24.281Z,85.22
2018-10-16T05:19:54.691Z,85.34
2018-10-16T05:22:24.795Z,85.67
2018-10-16T05:24:54.893Z,85.25
2018-10-16T05:27:25.101Z,85.16
2018-10-16T05:29:55.259Z,84.87
2018-10-16T05:32:25.920Z,85.12
2018-10-16T05:34:56.511Z,84.74
2018-10-16T05:37:26.637Z,84.63
2018-10-16T05:39:56.727Z,85.23
2018-10-16T05:42:26.871Z,85.43
2018-10-16T05:44:57.035Z,85.82
2018-10-16T05:47:27.339Z,86.40
2018-10-16T05:49:57.808Z,86.85
2018-10-16T05:52:28.868Z,87.06
2018-10-16T05:54:59.536Z,87.06
2018-10-16T05:57:29.835Z,87.44
2018-10-16T06:00:10.540Z,87.60
2018-10-16T06:02:40.780Z,87.39
2018-10-16T06:05:12.106Z,87.80
2018-10-16T06:07:43.405Z,87.94
2018-10-16T06:10:14.081Z,88.18
2018-10-16T06:12:44.299Z,88.71
2018-10-16T06:15:14.830Z,88.17
2018-10-16T06:17:45.073Z,87.73
2018-10-16T06:20:15.295Z,87.95
2018-10-16T06:22:45.500Z,87.97
2018-10-16T06:25:15.751Z,87.92
2018-10-16T06:27:45.985Z,87.91
2018-10-16T06:30:16.698Z,88.00
2018-10-16T06:32:46.832Z,88.61
2018-10-16T06:35:17.063Z,88.63
2018-10-16T06:37:47.260Z,88.62
2018-10-16T06:40:17.729Z,88.61
2018-10-16T06:42:47.840Z,88.96
2018-10-16T06:45:17.975Z,88.81
2018-10-16T06:47:48.290Z,88.50
2018-10-16T06:50:18.419Z,88.24
2018-10-16T06:52:48.516Z,88.58
2018-10-16T06:55:20.856Z,88.27
2018-10-16T06:57:51.090Z,88.04
2018-10-16T07:00:21.560Z,88.39
2018-10-16T07:02:51.936Z,88.03
2018-10-16T07:05:22.127Z,88.06
2018-10-16T07:07:52.268Z,88.47
2018-10-16T07:10:22.512Z,88.19
2018-10-16T07:12:53.039Z,88.22
2018-10-16T07:15:23.212Z,88.52
2018-10-16T07:17:53.263Z,88.37
2018-10-16T07:20:23.534Z,88.46
2018-10-16T07:22:53.743Z,88.06
2018-10-16T07:25:23.996Z,87.92
2018-10-16T07:27:54.574Z,87.82
2018-10-16T07:30:24.896Z,87.94
2018-10-16T07:32:55.077Z,87.55
2018-10-16T07:35:25.240Z,87.54
2018-10-16T07:37:56.451Z,87.65
2018-10-16T07:40:26.615Z,87.06
2018-10-16T07:42:57.056Z,86.20
2018-10-16T07:45:27.143Z,84.59
2018-10-16T07:47:57.447Z,83.66
2018-10-16T07:50:27.589Z,82.21
2018-10-16T07:52:57.734Z,80.62
2018-10-16T07:55:28.017Z,79.25
2018-10-16T07:57:58.432Z,78.62
2018-10-16T08:00:28.652Z,79.13
2018-10-16T08:02:58.784Z,79.45
2018-10-16T08:05:28.947Z,79.40
2018-10-16T08:07:59.083Z,79.65
2018-10-16T08:10:29.212Z,78.63
2018-10-16T08:12:59.736Z,77.50
2018-10-16T08:15:29.934Z,76.84
2018-10-16T08:18:00.151Z,74.82
2018-10-16T08:20:30.371Z,74.58
2018-10-16T08:23:00.829Z,72.68
2018-10-16T08:25:30.999Z,70.90
2018-10-16T08:28:01.229Z,68.08
2018-10-16T08:30:31.580Z,65.81
2018-10-16T08:33:01.735Z,63.52
2018-10-16T08:35:32.008Z,60.74
2018-10-16T08:40:10.130Z,58.98
2018-10-16T08:43:51.128Z,54.65
2018-10-16T08:46:32.351Z,49.76
2018-10-16T08:49:13.263Z,48.64
2018-10-16T08:51:49.335Z,49.01
2018-10-16T08:54:19.693Z,48.51
2018-10-16T08:56:49.968Z,46.43
2018-10-16T08:59:20.641Z,44.47
2018-10-16T09:01:51.149Z,45.44
2018-10-16T09:04:21.352Z,42.71
2018-10-16T09:06:51.665Z,44.22
2018-10-16T09:09:22.357Z,46.88
2018-10-16T09:11:52.518Z,45.48
2018-10-16T09:14:22.845Z,51.00
2018-10-16T09:16:53.056Z,51.22
2018-10-16T09:19:25.464Z,54.54
2018-10-16T09:21:55.597Z,53.90
2018-10-16T09:24:25.761Z,55.33
2018-10-16T09:26:55.848Z,54.01
2018-10-16T09:29:27.342Z,54.27
2018-10-16T09:31:57.520Z,54.83
2018-10-16T09:34:27.691Z,55.69
2018-10-16T09:36:57.917Z,56.43
2018-10-16T09:39:28.082Z,56.68
2018-10-16T09:41:58.308Z,54.45
2018-10-16T09:44:28.988Z,52.37
2018-10-16T09:46:59.512Z,49.01
2018-10-16T09:49:29.759Z,45.96
2018-10-16T09:51:59.939Z,44.86
2018-10-16T09:54:30.144Z,44.60
2018-10-16T09:57:00.403Z,43.25
2018-10-16T09:59:30.955Z,45.34
2018-10-16T10:02:01.066Z,46.77
2018-10-16T10:04:31.499Z,47.49
2018-10-16T10:07:01.845Z,49.47
2018-10-16T10:09:32.269Z,48.59
2018-10-16T10:12:03.186Z,49.95
2018-10-16T10:14:33.910Z,51.57
2018-10-16T10:17:04.220Z,51.45
2018-10-16T10:19:34.407Z,52.50
2018-10-16T10:22:04.876Z,51.81
2018-10-16T10:24:35.308Z,50.64
2018-10-16T10:27:05.469Z,52.77
2018-10-16T10:29:36.634Z,51.08
2018-10-16T10:32:08.247Z,52.04
2018-10-16T10:34:38.455Z,52.82
2018-10-16T10:37:11.359Z,52.37
2018-10-16T10:39:41.524Z,50.95
2018-10-16T10:42:11.788Z,49.42
2018-10-16T10:44:42.728Z,50.65
2018-10-16T10:47:13.422Z,51.30
2018-10-16T10:49:43.643Z,51.59
2018-10-16T10:52:19.499Z,51.14
2018-10-16T10:54:57.865Z,49.79
2018-10-16T10:57:28.020Z,48.66
2018-10-16T10:59:58.480Z,49.38
2018-10-16T11:02:28.671Z,50.31
2018-10-16T11:04:58.890Z,49.95
2018-10-16T11:07:31.145Z,47.03
2018-10-16T11:10:10.317Z,49.77
2018-10-16T11:12:43.237Z,46.47
2018-10-16T11:15:20.764Z,47.71
2018-10-16T11:17:51.636Z,47.11
2018-10-16T11:20:22.424Z,48.41
2018-10-16T11:22:53.435Z,48.13
2018-10-16T11:25:44.942Z,49.14
2018-10-16T11:28:15.067Z,48.61
2018-10-16T11:30:45.656Z,47.65
2018-10-16T11:33:15.876Z,47.03
2018-10-16T11:35:46.047Z,47.35
2018-10-16T11:38:16.311Z,47.51
2018-10-16T11:40:46.571Z,47.94
2018-10-16T11:43:17.017Z,47.28
2018-10-16T11:45:47.199Z,46.71
2018-10-16T11:48:17.440Z,46.40
2018-10-16T11:50:47.844Z,47.21
2018-10-16T11:53:22.131Z,47.60
2018-10-16T11:55:52.314Z,44.10
2018-10-16T11:58:22.522Z,42.73
2018-10-16T12:00:52.693Z,41.06
2018-10-16T12:03:23.384Z,42.35
2018-10-16T12:05:53.545Z,40.72
2018-10-16T12:08:23.687Z,42.57
2018-10-16T12:10:53.923Z,44.61
2018-10-16T12:13:24.167Z,43.20
2018-10-16T12:15:54.763Z,41.07
2018-10-16T12:18:28.243Z,45.30
2018-10-16T12:21:03.526Z,43.46
2018-10-16T12:23:33.708Z,41.76
2018-10-16T12:26:06.286Z,40.16
2018-10-16T12:28:36.720Z,38.91
2018-10-16T12:31:07.000Z,38.82
2018-10-16T12:33:37.240Z,38.73
2018-10-16T12:36:07.796Z,38.09
2018-10-16T12:38:38.126Z,36.22
2018-10-16T12:41:08.647Z,36.03
2018-10-16T12:43:39.077Z,35.87
2018-10-16T12:46:09.154Z,33.78
2018-10-16T12:48:39.688Z,31.84
2018-10-16T12:51:10.004Z,32.35
2018-10-16T12:53:40.064Z,34.17
2018-10-16T12:56:11.936Z,33.27
2018-10-16T12:58:42.277Z,34.21
2018-10-16T13:01:12.440Z,35.58
2018-10-16T13:03:42.614Z,35.42
2018-10-16T13:06:13.143Z,33.98
2018-10-16T13:08:43.347Z,35.66
2018-10-16T13:11:13.575Z,34.73
2018-10-16T13:13:43.796Z,35.34
2018-10-16T13:16:15.366Z,35.46
2018-10-16T13:18:45.592Z,34.96
2018-10-16T13:21:16.030Z,36.71
2018-10-16T13:23:46.248Z,36.05
2018-10-16T13:26:16.540Z,36.15
2018-10-16T13:28:46.773Z,37.44
2018-10-16T13:31:18.343Z,37.96
2018-10-16T13:33:48.586Z,37.71
2018-10-16T13:36:18.689Z,35.77
2018-10-16T13:38:49.533Z,37.97
2018-10-16T13:41:21.049Z,36.19
2018-10-16T13:43:51.303Z,35.95
2018-10-16T13:46:21.634Z,37.00
2018-10-16T13:48:51.759Z,37.13
2018-10-16T13:51:21.956Z,35.78
2018-10-16T13:53:52.473Z,35.99
2018-10-16T13:56:22.693Z,35.54
2018-10-16T13:58:52.986Z,36.13
2018-10-16T14:01:23.176Z,35.61
2018-10-16T14:03:53.631Z,36.75
2018-10-16T14:06:23.892Z,36.71
2018-10-16T14:08:54.109Z,34.13
2018-10-16T14:11:24.584Z,33.64
2018-10-16T14:13:55.021Z,33.83
2018-10-16T14:16:25.326Z,34.42
2018-10-16T14:18:56.864Z,35.49
2018-10-16T14:21:27.886Z,35.85
2018-10-16T14:23:58.243Z,35.53
2018-10-16T14:26:28.552Z,35.15
2018-10-16T14:28:59.051Z,34.97
2018-10-16T14:31:31.399Z,35.59
2018-10-16T14:34:01.615Z,34.95
2018-10-16T14:36:32.269Z,34.48
2018-10-16T14:39:02.572Z,35.02
2018-10-16T14:41:33.560Z,34.07
2018-10-16T14:44:04.819Z,35.18
2018-10-16T14:46:35.109Z,36.29
2018-10-16T14:49:06.161Z,35.77
2018-10-16T14:51:42.859Z,35.83
2018-10-16T14:54:13.776Z,35.88
2018-10-16T14:56:44.347Z,34.09
2018-10-16T14:59:16.323Z,32.54
2018-10-16T15:01:49.269Z,33.87
2018-10-16T15:04:19.590Z,34.77
2018-10-16T15:06:49.883Z,34.91
2018-10-16T15:09:21.224Z,34.96
2018-10-16T15:11:53.292Z,35.11
2018-10-16T15:14:23.569Z,35.78
2018-10-16T15:16:54.036Z,37.43
2018-10-16T15:19:28.324Z,38.00
2018-10-16T15:21:58.431Z,39.02
2018-10-16T15:24:28.693Z,38.72
2018-10-16T15:26:59.591Z,39.13
2018-10-16T15:29:29.775Z,39.31
2018-10-16T15:32:00.373Z,39.39
2018-10-16T15:34:30.708Z,40.78
2018-10-16T15:37:00.889Z,39.37
2018-10-16T15:39:31.427Z,38.68
2018-10-16T15:42:01.622Z,40.13
2018-10-16T15:44:32.240Z,39.60
2018-10-16T15:47:02.539Z,39.51
2018-10-16T15:49:37.798Z,40.09
2018-10-16T15:52:08.384Z,42.38
2018-10-16T15:54:38.553Z,42.42
2018-10-16T15:57:08.820Z,43.15
2018-10-16T15:59:39.683Z,43.75
2018-10-16T16:02:10.086Z,43.46
2018-10-16T16:04:40.564Z,45.45
2018-10-16T16:07:10.896Z,45.81
2018-10-16T16:09:41.053Z,46.86
2018-10-16T16:12:11.427Z,47.49
2018-10-16T16:14:41.695Z,48.44
2018-10-16T16:17:12.331Z,48.39
2018-10-16T16:19:42.834Z,49.42
2018-10-16T16:22:13.071Z,50.47
2018-10-16T16:24:43.427Z,51.16
2018-10-16T16:27:14.266Z,51.94
2018-10-16T16:29:44.432Z,52.17
2018-10-16T16:32:14.681Z,52.44
2018-10-16T16:34:44.885Z,52.26
2018-10-16T16:37:15.166Z,53.31
2018-10-16T16:39:46.829Z,53.19
2018-10-16T16:42:17.844Z,53.44
2018-10-16T16:44:48.164Z,54.87
2018-10-16T16:47:18.428Z,54.58
2018-10-16T16:49:52.910Z,54.33
2018-10-16T16:52:23.495Z,54.66
2018-10-16T16:54:53.878Z,54.92
2018-10-16T16:57:24.364Z,55.17
2018-10-16T16:59:56.942Z,55.54
2018-10-16T17:02:27.173Z,56.12
2018-10-16T17:04:57.459Z,56.77
2018-10-16T17:07:28.073Z,56.07
2018-10-16T17:09:58.423Z,57.21
2018-10-16T17:12:28.736Z,56.95
2018-10-16T17:15:00.472Z,57.91
2018-10-16T17:17:30.787Z,57.82
2018-10-16T17:20:01.001Z,58.45
2018-10-16T17:22:31.154Z,58.57
2018-10-16T17:25:01.921Z,58.68
2018-10-16T17:27:34.053Z,58.89
2018-10-16T17:30:09.768Z,59.00
2018-10-16T17:32:40.020Z,59.23
2018-10-16T17:35:12.909Z,59.62
2018-10-16T17:37:50.793Z,60.28
2018-10-16T17:40:21.402Z,60.80
2018-10-16T17:42:52.225Z,61.14
2018-10-16T17:45:22.898Z,61.03
2018-10-16T17:47:53.614Z,60.32
2018-10-16T17:50:27.468Z,60.50
2018-10-16T17:52:57.870Z,60.89
2018-10-16T17:55:28.628Z,61.18
2018-10-16T17:57:58.818Z,61.01
2018-10-16T18:00:28.941Z,60.80
2018-10-16T18:02:59.271Z,61.04
2018-10-16T18:05:31.458Z,61.47
2018-10-16T18:08:03.077Z,61.71
2018-10-16T18:10:33.551Z,61.63
2018-10-16T18:13:05.198Z,62.14
2018-10-16T18:15:36.894Z,62.31
2018-10-16T18:18:07.520Z,62.55
2018-10-16T18:20:37.801Z,62.08
2018-10-16T18:23:08.674Z,62.45
2018-10-16T18:25:39.436Z,63.42
2018-10-16T18:28:11.249Z,63.71
2018-10-16T18:30:41.800Z,64.40
2018-10-16T18:33:12.152Z,64.32
2018-10-16T18:35:44.795Z,64.77
2018-10-16T18:38:15.286Z,64.96
2018-10-16T18:40:46.224Z,65.23
2018-10-16T18:43:16.807Z,66.06
2018-10-16T18:45:47.324Z,66.42
2018-10-16T18:48:18.401Z,66.56
2018-10-16T18:50:50.450Z,66.92
2018-10-16T18:53:21.958Z,67.25
2018-10-16T18:55:54.407Z,67.23
2018-10-16T19:01:01.267Z,68.38
2018-10-16T19:03:31.694Z,68.45
2018-10-16T19:06:04.025Z,68.65
2018-10-16T19:08:37.564Z,69.14
2018-10-16T19:11:15.609Z,68.70
2018-10-16T19:13:46.327Z,69.17
2018-10-16T19:16:17.445Z,69.25
2018-10-16T19:18:48.884Z,69.77
2018-10-16T19:21:19.559Z,70.21
2018-10-16T19:23:52.201Z,70.26
2018-10-16T19:26:22.812Z,70.36
2018-10-16T19:28:53.229Z,70.74
2018-10-16T19:31:24.683Z,70.68
2018-10-16T19:34:07.904Z,71.25
2018-10-16T19:36:38.294Z,71.16
2018-10-16T19:39:11.077Z,71.79
2018-10-16T19:41:42.422Z,71.30
2018-10-16T19:44:12.709Z,71.49
2018-10-16T19:46:43.257Z,71.53
2018-10-16T19:49:14.226Z,71.83
2018-10-16T19:51:46.563Z,72.19
2018-10-16T19:54:19.263Z,72.08
2018-10-16T19:56:50.215Z,72.54
2018-10-16T19:59:20.485Z,72.45
2018-10-16T20:01:51.477Z,73.16
2018-10-16T20:04:23.384Z,72.88
2018-10-16T20:06:54.175Z,73.09
2018-10-16T20:09:24.755Z,73.06
2018-10-16T20:11:55.615Z,73.40
2018-10-16T20:14:25.874Z,73.59
2018-10-16T20:16:57.114Z,73.95
2018-10-16T20:19:27.654Z,73.91
2018-10-16T20:22:00.334Z,74.07
2018-10-16T20:24:31.021Z,73.85
2018-10-16T20:30:16.237Z,73.55
2018-10-16T20:32:46.739Z,74.27
2018-10-16T20:35:17.231Z,74.56
2018-10-16T20:37:47.741Z,74.72
2018-10-16T20:40:17.934Z,75.45
2018-10-16T20:42:48.468Z,75.60
2018-10-16T20:45:18.572Z,75.57
2018-10-16T20:47:49.810Z,75.85
2018-10-16T20:50:20.242Z,76.31
2018-10-16T20:52:50.423Z,76.20
2018-10-16T20:55:20.551Z,76.48
2018-10-16T20:57:50.804Z,76.70
2018-10-16T21:00:21.459Z,76.69
2018-10-16T21:02:51.671Z,76.55
2018-10-16T21:05:22.219Z,76.71
2018-10-16T21:07:52.179Z,76.86
2018-10-16T21:10:23.999Z,76.96
2018-10-16T21:12:54.450Z,77.17
2018-10-16T21:15:25.016Z,77.20
2018-10-16T21:17:55.726Z,77.84
2018-10-16T21:20:25.853Z,77.91
2018-10-16T21:22:56.229Z,78.29
2018-10-16T21:25:26.559Z,78.26
2018-10-16T21:27:58.098Z,78.59
2018-10-16T21:30:29.153Z,78.77
2018-10-16T21:32:59.508Z,78.92
2018-10-16T21:35:31.397Z,79.20
2018-10-16T21:38:01.736Z,79.39
2018-10-16T21:40:32.103Z,79.86
2018-10-16T21:43:02.467Z,79.88
2018-10-16T21:45:32.898Z,80.26
2018-10-16T21:48:03.224Z,79.93
2018-10-16T21:50:34.779Z,79.63
2018-10-16T21:53:05.098Z,80.12
2018-10-16T21:55:35.686Z,80.25
2018-10-16T21:58:06.244Z,80.26
2018-10-16T22:00:41.843Z,80.43
2018-10-16T22:03:11.931Z,80.30
2018-10-16T22:05:42.133Z,79.91
2018-10-16T22:08:12.683Z,79.60
2018-10-16T22:10:43.327Z,79.55
2018-10-16T22:13:13.635Z,79.62
2018-10-16T22:15:44.108Z,79.84
2018-10-16T22:18:14.304Z,80.31
2018-10-16T22:20:44.643Z,80.27
2018-10-16T22:23:16.708Z,80.66
2018-10-16T22:25:47.522Z,80.41
2018-10-16T22:28:17.643Z,81.04
2018-10-16T22:30:48.010Z,81.40
2018-10-16T22:33:18.160Z,82.13
2018-10-16T22:35:48.329Z,82.10
2018-10-16T22:38:18.900Z,81.97
2018-10-16T22:40:49.031Z,82.17
2018-10-16T22:43:19.185Z,82.26
2018-10-16T22:45:49.353Z,82.25
2018-10-16T22:48:19.522Z,82.62
2018-10-16T22:50:49.960Z,82.98
2018-10-16T22:53:20.068Z,82.63
2018-10-16T22:55:50.803Z,82.45
2018-10-16T22:58:21.036Z,82.43
2018-10-16T23:00:51.305Z,83.00
2018-10-16T23:03:21.626Z,83.56
2018-10-16T23:05:53.260Z,84.39
2018-10-16T23:08:23.724Z,84.78
2018-10-16T23:10:53.926Z,84.82
2018-10-16T23:13:24.123Z,84.27
2018-10-16T23:15:54.267Z,83.84
2018-10-16T23:18:26.273Z,83.17
2018-10-16T23:20:56.497Z,83.29
2018-10-16T23:23:26.736Z,83.08
2018-10-16T23:25:57.092Z,82.59
2018-10-16T23:28:27.540Z,82.33
2018-10-16T23:30:57.732Z,82.72
2018-10-16T23:33:27.860Z,82.96
2018-10-16T23:35:58.536Z,83.28
2018-10-16T23:38:28.615Z,83.70
2018-10-16T23:40:59.214Z,84.04
2018-10-16T23:43:29.708Z,83.81
2018-10-16T23:45:59.763Z,83.96
2018-10-16T23:48:29.907Z,84.41
2018-10-16T23:51:00.353Z,84.43
2018-10-16T23:53:31.024Z,84.16
2018-10-16T23:56:01.154Z,84.54
2018-10-16T23:58:31.439Z,84.00
